Time;durP1;ratioP1;P1;durP2;ratioP2;P2;SDS_P1;SDS_P2;PMS_P1;PMS_P2;Temp;Humidity;BMP_temperature;BMP_pressure;BME280_temperature;BME280_humidity;BME280_pressure;Samples;Min_cycle;Max_cycle;Signal;HPM_P1;HPM_P2
2022/03/19 00:09:28;;;;;;;5.73;3.40;;;;;;;;;;20691225;28;20647;-65
2022/03/19 00:19:31;;;;;;;6.83;3.50;;;;;;;;;;20687258;28;20293;-65
2022/03/19 00:29:33;;;;;;;5.73;3.10;;;9.40;99.90;;;;;;20681685;28;20219;-65
2022/03/19 00:39:35;;;;;;;5.27;3.47;;;;;;;;;;20762727;22;20651;-86
2022/03/19 01:24:47;;;;;;;4.50;3.30;;;;;;;;;;20970159;22;20639;-66
2022/03/19 01:34:49;;;;;;;5.67;3.60;;;;;;;;;;20871318;28;20267;-66
2022/03/19 01:44:52;;;;;;;12.00;3.13;;;8.80;99.90;;;;;;20871302;28;20222;-66
2022/03/19 01:54:54;;;;;;;3.83;2.30;;;;;;;;;;20871154;28;20764;-66
2022/03/19 02:04:59;;;;;;;4.37;2.10;;;;;;;;;;20870093;28;20599;-65
2022/03/19 02:15:01;;;;;;;5.10;2.17;;;;;;;;;;20870559;28;20522;-65
2022/03/19 02:35:25;;;;;;;2.27;1.20;;;;;;;;;;20874956;28;20202;-65
2022/03/19 02:45:26;;;;;;;1.77;1.17;;;;;;;;;;20867766;28;20222;-65
2022/03/19 02:55:32;;;;;;;3.13;2.00;;;;;;;;;;20883518;28;20201;-65
2022/03/19 03:05:35;;;;;;;3.13;1.87;;;;;;;;;;20882226;28;20217;-66
2022/03/19 03:15:36;;;;;;;2.60;1.53;;;;;;;;;;20881734;28;20697;-65
2022/03/19 03:25:38;;;;;;;3.77;1.50;;;;;;;;;;20896521;28;20214;-65
2022/03/19 03:35:40;;;;;;;3.07;1.53;;;7.80;99.90;;;;;;20864501;28;20244;-65
2022/03/19 03:45:42;;;;;;;2.57;1.37;;;;;;;;;;20878759;28;20255;-65
2022/03/19 03:55:44;;;;;;;2.53;1.43;;;7.70;99.90;;;;;;20878470;28;20263;-65
2022/03/19 04:05:47;;;;;;;1.90;0.90;;;;;;;;;;20885799;28;20701;-66
2022/03/19 04:15:50;;;;;;;3.67;1.00;;;;;;;;;;20893878;28;20244;-66
2022/03/19 04:25:51;;;;;;;1.77;1.03;;;;;;;;;;20875591;28;20226;-66
2022/03/19 04:46:14;;;;;;;1.90;1.00;;;;;;;;;;20898680;28;20279;-65
2022/03/19 04:56:15;;;;;;;2.23;1.20;;;;;;;;;;20857630;28;20331;-67
2022/03/19 05:06:17;;;;;;;4.03;1.60;;;;;;;;;;20890037;28;20622;-67
2022/03/19 05:16:19;;;;;;;2.40;1.33;;;;;;;;;;20889427;28;20255;-67
2022/03/19 05:26:21;;;;;;;3.07;1.57;;;;;;;;;;20889249;28;20271;-67
2022/03/19 05:36:24;;;;;;;3.33;1.87;;;;;;;;;;20855777;28;20685;-67
2022/03/19 05:46:26;;;;;;;2.53;1.40;;;;;;;;;;20871589;28;20221;-65
2022/03/19 05:56:28;;;;;;;1.63;1.00;;;;;;;;;;20887942;28;20259;-67
2022/03/19 06:06:30;;;;;;;6.47;2.13;;;6.90;99.90;;;;;;20854852;28;20217;-68
2022/03/19 06:16:32;;;;;;;1.87;1.17;;;;;;;;;;20884104;28;20201;-67
2022/03/19 06:26:34;;;;;;;2.70;1.40;;;;;;;;;;20915976;28;20279;-66
2022/03/19 06:49:09;;;;;;;3.50;1.67;;;;;;;;;;21052848;27;20574;-65
2022/03/19 06:59:11;;;;;;;5.93;1.43;;;;;;;;;;20929683;28;20618;-65
2022/03/19 07:09:13;;;;;;;2.47;1.00;;;;;;;;;;20953290;28;20198;-65
2022/03/19 07:19:14;;;;;;;4.23;1.73;;;;;;;;;;20971937;28;20205;-64
2022/03/19 07:29:19;;;;;;;2.23;1.53;;;;;;;;;;21005193;28;20205;-65
2022/03/19 07:39:20;;;;;;;5.07;2.07;;;;;;;;;;20910416;28;20205;-65
2022/03/19 07:49:23;;;;;;;4.27;2.17;;;;;;;;;;20980389;28;20273;-65
2022/03/19 07:59:25;;;;;;;5.90;2.13;;;7.90;99.90;;;;;;20970326;28;20201;-65
2022/03/19 08:09:26;;;;;;;6.07;2.83;;;;;;;;;;20946341;28;20202;-65
2022/03/19 08:19:28;;;;;;;7.13;3.33;;;;;;;;;;20832518;28;20202;-65
2022/03/19 08:29:30;;;;;;;6.00;3.47;;;;;;;;;;20852954;28;20224;-66
2022/03/19 08:49:57;;;;;;;6.30;4.47;;;;;;;;;;20811862;28;20705;-66
2022/03/19 08:59:59;;;;;;;4.67;3.07;;;;;;;;;;20855458;28;20225;-66
2022/03/19 09:10:01;;;;;;;6.90;3.47;;;;;;;;;;20944864;28;20217;-66
2022/03/19 09:20:04;;;;;;;8.30;3.60;;;;;;;;;;20963648;28;20209;-66
2022/03/19 09:30:06;;;;;;;6.47;3.03;;;;;;;;;;20832254;28;20221;-66
2022/03/19 09:40:09;;;;;;;6.63;4.10;;;10.20;99.90;;;;;;20920614;28;20229;-66
2022/03/19 09:50:10;;;;;;;5.53;3.30;;;;;;;;;;20917174;28;20225;-66
2022/03/19 10:00:13;;;;;;;4.63;2.93;;;;;;;;;;20941378;28;20236;-65
2022/03/19 10:10:15;;;;;;;7.80;4.20;;;;;;;;;;20889878;28;20272;-66
2022/03/19 10:20:16;;;;;;;7.00;4.40;;;;;;;;;;20921760;28;20367;-66
2022/03/19 10:30:22;;;;;;;5.97;3.30;;;13.50;99.90;;;;;;20877005;28;20213;-66
2022/03/19 10:40:36;;;;;;;4.73;2.70;;;;;;;;;;20867492;28;20567;-66
2022/03/19 10:50:40;;;;;;;3.10;1.73;;;13.30;99.90;;;;;;20886883;28;20217;-65
2022/03/19 11:00:43;;;;;;;2.57;1.20;;;;;;;;;;20874334;28;20697;-66
2022/03/19 11:10:47;;;;;;;2.30;1.37;;;14.30;99.90;;;;;;20855510;28;20218;-66
2022/03/19 11:20:49;;;;;;;1.73;1.00;;;16.10;99.90;;;;;;20859137;28;20213;-66
2022/03/19 11:31:04;;;;;;;3.17;1.90;;;;;;;;;;20886183;28;20229;-66
2022/03/19 11:41:18;;;;;;;3.77;1.47;;;14.90;99.90;;;;;;20924291;28;20221;-66
2022/03/19 11:51:28;;;;;;;1.63;0.93;;;;;;;;;;20811510;28;20226;-66
2022/03/19 12:01:48;;;;;;;1.73;1.17;;;;;;;;;;20935651;28;20611;-66
2022/03/19 12:12:09;;;;;;;1.80;1.00;;;;;;;;;;20940213;28;20209;-65
2022/03/19 12:22:11;;;;;;;1.83;0.97;;;;;;;;;;20916571;28;20604;-66
2022/03/19 12:32:13;;;;;;;1.77;0.90;;;;;;;;;;20966952;28;20266;-66
2022/03/19 12:42:34;;;;;;;1.50;0.73;;;15.20;99.90;;;;;;20931140;28;20697;-66
2022/03/19 13:04:27;;;;;;;0.60;0.50;;;;;;;;;;20806366;23;20242;-66
2022/03/19 13:14:29;;;;;;;2.27;0.70;;;;;;;;;;20817012;28;20682;-66
2022/03/19 13:24:36;;;;;;;1.00;0.60;;;15.10;99.90;;;;;;20786438;28;20219;-65
2022/03/19 13:34:42;;;;;;;0.80;0.50;;;15.50;99.90;;;;;;20770159;28;20276;-66
2022/03/19 13:44:48;;;;;;;0.70;0.40;;;16.00;99.90;;;;;;20773080;28;20207;-65
2022/03/19 13:54:50;;;;;;;0.90;0.60;;;;;;;;;;20753900;28;20269;-65
2022/03/19 14:04:52;;;;;;;1.57;0.60;;;;;;;;;;20760917;28;20288;-65
2022/03/19 14:14:53;;;;;;;0.40;0.40;;;;;;;;;;20762743;28;20230;-65
2022/03/19 14:24:55;;;;;;;0.43;0.30;;;;;;;;;;20761823;28;20586;-65
2022/03/19 14:34:57;;;;;;;1.37;0.50;;;;;;;;;;20755828;28;20226;-65
2022/03/19 14:45:01;;;;;;;0.40;0.40;;;;;;;;;;20785900;28;20562;-65
2022/03/19 14:55:02;;;;;;;2.10;0.57;;;14.20;82.70;;;;;;20790021;28;20221;-65
2022/03/19 15:05:06;;;;;;;0.87;0.50;;;14.80;87.70;;;;;;20785150;28;20222;-64
2022/03/19 15:15:10;;;;;;;0.90;0.50;;;13.60;83.50;;;;;;20775530;28;20225;-64
2022/03/19 15:25:12;;;;;;;0.63;0.50;;;;;;;;;;20770238;28;20219;-64
2022/03/19 15:35:14;;;;;;;1.57;0.80;;;;;;;;;;20799658;28;20256;-64
2022/03/19 15:45:16;;;;;;;0.50;0.47;;;;;;;;;;20768451;28;20219;-64
2022/03/19 15:55:19;;;;;;;0.97;0.80;;;;;;;;;;20817345;28;20292;-64
2022/03/19 16:05:21;;;;;;;0.30;0.30;;;;;;;;;;20777217;28;20296;-65
2022/03/19 16:15:23;;;;;;;4.47;0.70;;;;;;;;;;20801021;28;20210;-64
2022/03/19 16:25:25;;;;;;;1.37;0.50;;;12.40;92.70;;;;;;20757139;28;20979;-63
2022/03/19 16:35:27;;;;;;;0.97;0.50;;;;;;;;;;20766577;28;20222;-64
2022/03/19 16:45:29;;;;;;;0.37;0.37;;;;;;;;;;20796822;28;20276;-64
2022/03/19 16:55:31;;;;;;;0.40;0.40;;;;;;;;;;20772129;28;20288;-65
2022/03/19 17:05:34;;;;;;;2.37;1.00;;;;;;;;;;20811182;28;20675;-65
2022/03/19 17:15:35;;;;;;;4.83;1.50;;;;;;;;;;20793951;28;20223;-65
2022/03/19 17:25:41;;;;;;;0.67;0.47;;;11.60;99.30;;;;;;20826078;28;20218;-65
2022/03/19 17:35:42;;;;;;;1.83;1.10;;;;;;;;;;20802142;28;20218;-64
2022/03/19 17:45:45;;;;;;;1.07;0.70;;;11.30;98.90;;;;;;20823883;28;20276;-65
2022/03/19 17:55:48;;;;;;;1.17;0.90;;;;;;;;;;20791419;28;20230;-65
2022/03/19 18:05:49;;;;;;;1.20;0.80;;;;;;;;;;20774205;28;20230;-64
2022/03/19 18:15:51;;;;;;;1.03;0.63;;;;;;;;;;20806788;28;20226;-64
2022/03/19 18:25:53;;;;;;;0.40;0.30;;;10.50;99.90;;;;;;20788371;28;20633;-65
2022/03/19 18:35:55;;;;;;;2.50;0.93;;;;;;;;;;20789013;28;20279;-65
2022/03/19 18:45:59;;;;;;;3.80;2.10;;;;;;;;;;20791144;23;20667;-82
2022/03/19 18:56:00;;;;;;;7.40;3.87;;;;;;;;;;20802916;28;20238;-82
2022/03/19 19:06:05;;;;;;;4.00;3.00;;;;;;;;;;20823864;28;20717;-82
2022/03/19 19:16:07;;;;;;;3.57;2.17;;;;;;;;;;20791288;28;20265;-82
2022/03/19 19:26:12;;;;;;;3.50;2.20;;;;;;;;;;20824215;28;20572;-83
2022/03/19 19:36:14;;;;;;;3.93;2.10;;;;;;;;;;20786544;28;20238;-82
2022/03/19 19:46:16;;;;;;;3.40;2.20;;;10.00;99.90;;;;;;20804710;28;20245;-83
2022/03/19 20:08:03;;;;;;;3.23;2.00;;;10.00;99.90;;;;;;21187064;27;20904;-65
2022/03/19 20:18:06;;;;;;;5.07;2.30;;;10.20;99.90;;;;;;21084005;28;20260;-65
2022/03/19 20:28:09;;;;;;;5.33;2.93;;;;;;;;;;21116302;28;20216;-65
2022/03/19 20:38:11;;;;;;;5.07;2.67;;;;;;;;;;21074121;28;20233;-66
2022/03/19 20:48:13;;;;;;;5.07;2.97;;;;;;;;;;21080284;28;20516;-66
2022/03/19 20:58:15;;;;;;;6.17;3.20;;;;;;;;;;21081796;28;20204;-66
2022/03/19 21:08:17;;;;;;;5.77;3.37;;;;;;;;;;21079019;28;20222;-65
2022/03/19 21:18:20;;;;;;;5.33;3.00;;;;;;;;;;21045818;28;20253;-66
2022/03/19 21:28:22;;;;;;;6.07;3.50;;;;;;;;;;21002971;28;20208;-66
2022/03/19 21:38:24;;;;;;;5.43;3.07;;;;;;;;;;21037642;28;20265;-66
2022/03/19 21:48:27;;;;;;;7.70;3.67;;;;;;;;;;21026966;28;20656;-66
2022/03/19 21:58:30;;;;;;;4.73;2.97;;;;;;;;;;21028063;28;20352;-66
2022/03/19 22:08:31;;;;;;;6.27;3.40;;;10.90;99.90;;;;;;21027420;28;20212;-66
2022/03/19 22:18:33;;;;;;;5.17;3.33;;;;;;;;;;21026727;28;20208;-66
2022/03/19 22:28:35;;;;;;;5.33;3.00;;;;;;;;;;21022362;28;20228;-66
2022/03/19 22:38:37;;;;;;;6.73;4.13;;;9.20;99.90;;;;;;21016235;28;20220;-66
2022/03/19 22:48:39;;;;;;;5.03;3.07;;;;;;;;;;21025908;28;20220;-66
2022/03/19 22:58:41;;;;;;;4.43;3.20;;;;;;;;;;21057859;28;20220;-66
2022/03/19 23:08:49;;;;;;;5.77;3.23;;;;;;;;;;21024720;28;20216;-66
2022/03/19 23:18:51;;;;;;;4.47;3.40;;;;;;;;;;21023641;28;20269;-66
2022/03/19 23:28:53;;;;;;;5.63;3.13;;;;;;;;;;21017273;28;20208;-66
2022/03/19 23:38:54;;;;;;;3.83;2.63;;;;;;;;;;21021354;28;20729;-66
2022/03/19 23:48:57;;;;;;;4.60;2.93;;;;;;;;;;21021671;28;20246;-66
2022/03/19 23:58:58;;;;;;;5.57;3.63;;;;;;;;;;21021017;28;20675;-66
